Time;durP1;ratioP1;P1;durP2;ratioP2;P2;SDS_P1;SDS_P2;PMS_P1;PMS_P2;Temp;Humidity;BMP_temperature;BMP_pressure;BME280_temperature;BME280_humidity;BME280_pressure;Samples;Min_cycle;Max_cycle;Signal;HPM_P1;HPM_P2
2022/12/12 00:00:33;;;;;;;17.70;9.25;;;-2.90;99.90;;;;;;5038052;28;20132;-81
2022/12/12 00:02:59;;;;;;;18.08;8.40;;;-2.80;99.90;;;;;;5035804;28;20489;-82
2022/12/12 00:05:24;;;;;;;14.05;8.32;;;-2.80;99.90;;;;;;5034573;28;20041;-82
2022/12/12 00:07:50;;;;;;;15.00;8.70;;;-2.70;99.90;;;;;;5040855;28;20029;-82
2022/12/12 00:10:19;;;;;;;15.00;8.55;;;-2.70;99.90;;;;;;5034907;28;20032;-81
2022/12/12 00:12:45;;;;;;;17.50;8.77;;;-2.70;99.90;;;;;;5040371;28;20028;-81
2022/12/12 00:15:17;;;;;;;14.07;9.00;;;-2.60;99.90;;;;;;5041221;28;20074;-81
2022/12/12 00:17:43;;;;;;;21.33;8.95;;;-2.60;99.90;;;;;;5039114;28;20028;-82
2022/12/12 00:20:09;;;;;;;19.17;9.20;;;-2.50;99.90;;;;;;5035405;28;20398;-80
2022/12/12 00:22:34;;;;;;;19.70;9.32;;;-2.50;99.90;;;;;;5036904;28;20033;-82
2022/12/12 00:25:00;;;;;;;16.48;8.95;;;-2.40;99.90;;;;;;5041311;28;20043;-82
2022/12/12 00:27:26;;;;;;;20.58;9.65;;;-2.40;99.90;;;;;;5034313;28;20060;-81
2022/12/12 00:29:52;;;;;;;25.60;10.02;;;-2.40;99.90;;;;;;5037339;28;20151;-81
2022/12/12 00:32:18;;;;;;;14.20;8.38;;;-2.30;99.90;;;;;;5034825;28;20329;-81
2022/12/12 00:34:44;;;;;;;21.42;9.18;;;-2.30;99.90;;;;;;5036149;28;20029;-81
2022/12/12 00:37:10;;;;;;;22.15;9.60;;;-2.30;99.90;;;;;;5043367;28;20021;-81
2022/12/12 00:39:35;;;;;;;16.20;8.70;;;-2.30;99.90;;;;;;5039858;28;20504;-81
2022/12/12 00:42:01;;;;;;;14.48;8.25;;;-2.30;99.90;;;;;;5039703;28;20029;-82
2022/12/12 00:44:27;;;;;;;20.65;8.50;;;-2.30;99.90;;;;;;5040602;28;20037;-81
2022/12/12 00:46:52;;;;;;;17.02;9.25;;;-2.30;99.90;;;;;;5039903;28;20025;-81
2022/12/12 00:49:18;;;;;;;24.38;8.82;;;-2.20;99.90;;;;;;5035809;28;20148;-82
2022/12/12 00:51:44;;;;;;;21.60;9.00;;;-2.20;99.90;;;;;;5043125;28;20037;-81
2022/12/12 00:54:10;;;;;;;15.70;8.45;;;-2.20;99.90;;;;;;5037666;28;20421;-82
2022/12/12 00:56:35;;;;;;;24.50;10.27;;;-2.20;99.90;;;;;;5040498;28;20108;-82
2022/12/12 00:59:02;;;;;;;15.05;8.48;;;-2.20;99.90;;;;;;5037529;28;20122;-81
2022/12/12 01:01:30;;;;;;;15.07;8.70;;;-2.20;99.90;;;;;;5032860;28;20490;-82
2022/12/12 01:03:56;;;;;;;19.92;9.25;;;-2.20;99.90;;;;;;5039478;28;20041;-81
2022/12/12 01:06:23;;;;;;;14.55;7.97;;;-2.10;99.90;;;;;;5040185;28;20418;-82
2022/12/12 01:08:49;;;;;;;15.05;8.57;;;-2.10;99.90;;;;;;5039046;28;20018;-82
2022/12/12 01:11:15;;;;;;;15.98;8.32;;;-2.10;99.90;;;;;;5039198;28;20034;-81
2022/12/12 01:13:42;;;;;;;18.42;9.15;;;-2.10;99.90;;;;;;5042455;28;20037;-82
2022/12/12 01:16:08;;;;;;;14.98;8.32;;;-2.10;99.90;;;;;;5042944;28;20328;-81
2022/12/12 01:18:34;;;;;;;18.70;8.45;;;-2.10;99.90;;;;;;5038938;28;20061;-82
2022/12/12 01:21:00;;;;;;;15.38;8.43;;;-2.00;99.90;;;;;;5042392;28;20017;-82
2022/12/12 01:23:27;;;;;;;23.25;8.73;;;-2.10;99.90;;;;;;5045463;28;20070;-82
2022/12/12 01:26:05;;;;;;;21.60;8.93;;;-2.00;99.90;;;;;;5045083;28;20293;-81
2022/12/12 01:28:30;;;;;;;13.40;7.97;;;-2.10;99.90;;;;;;5040443;28;20032;-82
2022/12/12 01:30:56;;;;;;;15.73;7.75;;;-2.00;99.90;;;;;;5041591;28;20383;-81
2022/12/12 01:33:21;;;;;;;19.98;8.27;;;-2.10;99.90;;;;;;5033011;28;20070;-82
2022/12/12 01:35:47;;;;;;;14.73;7.63;;;-2.10;99.90;;;;;;5043534;28;20048;-82
2022/12/12 01:38:13;;;;;;;16.35;8.02;;;-2.10;99.90;;;;;;5041513;28;20040;-82
2022/12/12 01:40:39;;;;;;;16.92;8.13;;;-2.10;99.90;;;;;;5041627;28;20021;-81
2022/12/12 01:43:14;;;;;;;17.50;8.10;;;-2.10;99.90;;;;;;5043521;28;20033;-82
2022/12/12 01:46:18;;;;;;;14.90;8.77;;;-2.10;99.90;;;;;;5040779;28;20037;-81
2022/12/12 01:48:55;;;;;;;13.38;7.20;;;-2.10;99.90;;;;;;5036882;28;20035;-82
2022/12/12 01:51:23;;;;;;;19.48;7.63;;;-2.10;99.90;;;;;;5037942;28;20184;-82
2022/12/12 01:53:53;;;;;;;15.32;8.18;;;-2.20;99.90;;;;;;5036888;28;20030;-82
2022/12/12 01:56:20;;;;;;;13.55;7.20;;;-2.10;99.90;;;;;;5042365;28;20512;-82
2022/12/12 01:58:50;;;;;;;14.30;8.02;;;-2.20;99.90;;;;;;5034812;28;20116;-82
2022/12/12 02:01:16;;;;;;;13.57;7.88;;;-2.20;99.90;;;;;;5039633;28;20116;-82
2022/12/12 02:03:44;;;;;;;16.60;7.72;;;-2.20;99.90;;;;;;5035209;28;20041;-82
2022/12/12 02:06:18;;;;;;;14.02;7.72;;;-2.20;99.90;;;;;;5042865;28;20487;-82
2022/12/12 02:08:46;;;;;;;18.73;8.00;;;-2.20;99.90;;;;;;5034643;28;20043;-82
2022/12/12 02:11:12;;;;;;;16.42;8.15;;;-2.20;99.90;;;;;;5042340;28;20524;-83
2022/12/12 02:13:39;;;;;;;13.57;6.57;;;-2.20;99.90;;;;;;5031893;28;20055;-80
2022/12/12 02:16:26;;;;;;;11.63;6.18;;;-2.20;99.90;;;;;;5038056;28;20037;-82
2022/12/12 02:19:21;;;;;;;9.32;6.13;;;-2.20;99.90;;;;;;5032215;28;20052;-83
2022/12/12 02:22:03;;;;;;;11.50;6.30;;;-2.10;99.90;;;;;;5042470;28;20022;-81
2022/12/12 02:25:06;;;;;;;9.20;6.00;;;-2.10;99.90;;;;;;5035601;28;20086;-81
2022/12/12 02:27:39;;;;;;;9.73;5.18;;;-2.10;99.90;;;;;;5036163;28;20064;-82
2022/12/12 02:30:06;;;;;;;11.98;6.03;;;-2.10;99.90;;;;;;5031002;28;20029;-81
2022/12/12 02:32:44;;;;;;;9.80;6.35;;;-2.10;99.90;;;;;;5042346;28;20018;-82
2022/12/12 02:35:24;;;;;;;15.77;6.03;;;-2.10;99.90;;;;;;5041943;28;20035;-82
2022/12/12 02:38:15;;;;;;;11.35;6.05;;;-2.10;99.90;;;;;;5041667;28;20048;-81
2022/12/12 02:41:07;;;;;;;10.38;5.82;;;-2.10;99.90;;;;;;5041315;28;20037;-82
2022/12/12 02:43:58;;;;;;;13.23;5.85;;;-2.00;99.90;;;;;;5033959;28;20045;-82
2022/12/12 02:46:39;;;;;;;9.57;5.60;;;-2.00;99.90;;;;;;5036112;28;20037;-82
2022/12/12 02:49:14;;;;;;;13.02;5.75;;;-2.00;99.90;;;;;;5041070;28;20029;-82
2022/12/12 02:51:40;;;;;;;8.48;5.65;;;-2.00;99.90;;;;;;5040107;28;20029;-82
2022/12/12 02:54:17;;;;;;;9.63;5.85;;;-2.00;99.90;;;;;;5037362;28;20029;-82
2022/12/12 02:56:56;;;;;;;9.93;5.80;;;-2.00;99.90;;;;;;5040179;28;20500;-82
2022/12/12 02:59:39;;;;;;;11.55;5.75;;;-2.00;99.90;;;;;;5044221;28;20053;-82
2022/12/12 03:02:29;;;;;;;6.88;5.15;;;-2.00;99.90;;;;;;5040665;28;20056;-82
2022/12/12 03:08:17;;;;;;;8.55;5.50;;;-2.00;99.90;;;;;;5036824;28;20036;-82
2022/12/12 03:10:48;;;;;;;9.95;6.35;;;-1.90;99.90;;;;;;5042936;28;20040;-82
2022/12/12 03:13:33;;;;;;;8.40;5.03;;;-1.90;99.90;;;;;;5036131;28;20029;-82
2022/12/12 03:16:08;;;;;;;9.63;6.47;;;-1.90;99.90;;;;;;5036557;28;20033;-82
2022/12/12 03:18:41;;;;;;;15.25;9.02;;;-1.80;99.90;;;;;;5044791;28;20045;-82
2022/12/12 03:21:35;;;;;;;16.45;8.93;;;-1.80;99.90;;;;;;5035731;28;20379;-82
2022/12/12 03:24:43;;;;;;;19.27;9.23;;;-1.80;99.90;;;;;;5034246;28;20087;-82
2022/12/12 03:27:19;;;;;;;22.63;11.82;;;-1.80;99.90;;;;;;5035877;28;20029;-82
2022/12/12 03:29:53;;;;;;;18.17;10.23;;;-1.80;99.90;;;;;;5033428;28;20025;-82
2022/12/12 03:32:24;;;;;;;17.15;10.27;;;-1.90;99.90;;;;;;5032294;28;20505;-82
2022/12/12 03:35:05;;;;;;;18.20;9.20;;;-1.90;99.90;;;;;;5039472;28;20018;-82
2022/12/12 03:37:40;;;;;;;18.77;10.38;;;-1.90;99.90;;;;;;5039267;28;20030;-80
2022/12/12 03:40:14;;;;;;;18.02;10.15;;;-2.00;99.90;;;;;;5037604;28;20029;-82
2022/12/12 03:43:17;;;;;;;20.80;10.55;;;-1.90;99.90;;;;;;5038118;28;20044;-81
2022/12/12 03:46:06;;;;;;;22.05;11.82;;;-2.00;99.90;;;;;;5032556;28;20547;-82
2022/12/12 03:48:40;;;;;;;19.35;10.55;;;-2.00;99.90;;;;;;5037033;28;20033;-82
2022/12/12 03:51:27;;;;;;;17.90;10.85;;;-1.90;99.90;;;;;;5036336;28;20029;-82
2022/12/12 03:53:57;;;;;;;21.85;11.52;;;-2.00;99.90;;;;;;5035460;28;20018;-82
2022/12/12 03:56:29;;;;;;;19.05;9.98;;;-2.00;99.90;;;;;;5030855;28;20445;-80
2022/12/12 03:58:59;;;;;;;16.27;9.38;;;-2.00;99.90;;;;;;5034002;28;20516;-82
2022/12/12 04:01:34;;;;;;;20.95;9.93;;;-2.00;99.90;;;;;;5043239;28;20036;-82
2022/12/12 04:04:25;;;;;;;16.15;9.32;;;-2.00;99.90;;;;;;5031987;28;20098;-82
2022/12/12 04:07:21;;;;;;;17.10;9.20;;;-2.00;99.90;;;;;;5025635;28;20390;-82
2022/12/12 04:12:57;;;;;;;13.18;7.90;;;-2.10;99.90;;;;;;5041171;28;20393;-82
2022/12/12 04:15:50;;;;;;;14.93;8.68;;;-2.10;99.90;;;;;;5039413;28;20048;-81
2022/12/12 04:18:21;;;;;;;14.30;7.38;;;-2.10;99.90;;;;;;5038942;28;20045;-82
2022/12/12 04:24:03;;;;;;;17.70;9.77;;;-2.10;99.90;;;;;;5039077;28;20132;-82
2022/12/12 04:26:45;;;;;;;19.33;9.38;;;-2.00;99.90;;;;;;5035211;28;20086;-82
2022/12/12 04:29:25;;;;;;;15.07;9.05;;;-2.00;99.90;;;;;;5039141;28;20063;-82
2022/12/12 04:31:54;;;;;;;17.08;8.85;;;-2.00;99.90;;;;;;5035355;28;20401;-82
2022/12/12 04:34:36;;;;;;;13.35;8.20;;;-2.00;99.90;;;;;;5031191;28;20049;-82
2022/12/12 04:37:04;;;;;;;14.68;7.68;;;-1.90;99.90;;;;;;5035223;28;20030;-82
2022/12/12 04:39:31;;;;;;;14.02;8.90;;;-1.90;99.90;;;;;;5043122;28;20433;-82
2022/12/12 04:41:59;;;;;;;17.27;9.02;;;-1.90;99.90;;;;;;5031881;28;20083;-83
2022/12/12 04:44:28;;;;;;;14.45;9.43;;;-1.80;99.90;;;;;;5035877;28;20040;-82
2022/12/12 04:46:57;;;;;;;18.25;9.00;;;-1.80;99.90;;;;;;5036242;28;20108;-81
2022/12/12 04:49:27;;;;;;;19.13;9.95;;;-1.80;99.90;;;;;;5036225;28;20056;-82
2022/12/12 04:52:06;;;;;;;14.90;8.57;;;-1.90;99.90;;;;;;5034051;28;20033;-80
2022/12/12 04:55:10;;;;;;;15.68;8.80;;;-1.90;99.90;;;;;;5035582;28;20091;-80
2022/12/12 04:57:46;;;;;;;17.02;9.93;;;-2.00;99.90;;;;;;5043261;28;20071;-82
2022/12/12 05:00:13;;;;;;;19.70;10.02;;;-2.00;99.90;;;;;;5036447;28;20107;-80
2022/12/12 05:02:43;;;;;;;16.40;9.35;;;-2.00;99.90;;;;;;5038519;28;20025;-82
2022/12/12 05:05:28;;;;;;;18.70;8.60;;;-2.10;99.90;;;;;;5037877;28;20040;-82
2022/12/12 05:08:02;;;;;;;16.03;8.60;;;-2.10;99.90;;;;;;5033929;28;20059;-80
2022/12/12 05:10:29;;;;;;;14.45;8.20;;;-2.10;99.90;;;;;;5037374;28;20025;-82
2022/12/12 05:13:00;;;;;;;16.02;8.50;;;-2.10;99.90;;;;;;5037192;28;20111;-82
2022/12/12 05:15:27;;;;;;;20.40;9.73;;;-2.10;99.90;;;;;;5043233;28;20156;-83
2022/12/12 05:18:04;;;;;;;19.45;9.85;;;-2.10;99.90;;;;;;5029967;28;20117;-80
2022/12/12 05:20:30;;;;;;;14.18;9.07;;;-2.10;99.90;;;;;;5034407;28;20033;-81
2022/12/12 05:22:55;;;;;;;15.73;9.05;;;-2.10;99.90;;;;;;5028070;28;20048;-80
2022/12/12 05:25:21;;;;;;;21.33;10.75;;;-2.00;99.90;;;;;;5039940;28;20390;-80
2022/12/12 05:27:46;;;;;;;19.40;11.30;;;-2.00;99.90;;;;;;5039973;28;20056;-81
2022/12/12 05:30:12;;;;;;;21.95;10.13;;;-1.90;99.90;;;;;;5034661;28;20029;-81
2022/12/12 05:32:38;;;;;;;21.85;11.15;;;-1.90;99.90;;;;;;5037828;28;20526;-80
2022/12/12 05:35:05;;;;;;;20.05;10.57;;;-1.90;99.90;;;;;;5032773;28;20038;-80
2022/12/12 05:37:31;;;;;;;20.02;10.98;;;-1.90;99.90;;;;;;5042688;28;20057;-81
2022/12/12 05:39:56;;;;;;;18.40;10.38;;;-1.90;99.90;;;;;;5035258;28;20143;-80
2022/12/12 05:42:22;;;;;;;19.08;9.43;;;-1.80;99.90;;;;;;5032411;28;20286;-81
2022/12/12 05:44:47;;;;;;;19.17;10.30;;;-1.80;99.90;;;;;;5038270;28;20114;-80
2022/12/12 05:47:13;;;;;;;20.98;9.65;;;-1.90;99.90;;;;;;5039260;28;20209;-80
2022/12/12 05:49:39;;;;;;;14.98;9.55;;;-1.80;99.90;;;;;;5028369;28;20052;-80
2022/12/12 05:52:04;;;;;;;26.95;9.27;;;-1.80;99.90;;;;;;5034723;28;20036;-81
2022/12/12 05:54:30;;;;;;;14.43;7.95;;;-1.90;99.90;;;;;;5034400;28;20026;-81
2022/12/12 05:56:56;;;;;;;14.82;8.43;;;-1.80;99.90;;;;;;5038272;28;20028;-80
2022/12/12 05:59:21;;;;;;;13.18;8.00;;;-1.80;99.90;;;;;;5044146;28;20077;-81
2022/12/12 06:01:47;;;;;;;19.52;8.30;;;-1.70;99.90;;;;;;5035803;28;20025;-80
2022/12/12 06:04:12;;;;;;;14.50;8.10;;;-1.70;99.90;;;;;;5039416;28;20096;-81
2022/12/12 06:06:38;;;;;;;15.02;8.35;;;-1.70;99.90;;;;;;5035443;28;21225;-81
2022/12/12 06:09:04;;;;;;;11.55;8.27;;;-1.70;99.90;;;;;;5040002;28;20137;-81
2022/12/12 06:11:29;;;;;;;18.70;8.65;;;-1.70;99.90;;;;;;5047116;28;20063;-81
2022/12/12 06:13:55;;;;;;;14.27;8.63;;;-1.70;99.90;;;;;;5039570;28;20164;-81
2022/12/12 06:16:21;;;;;;;16.63;9.07;;;-1.70;99.90;;;;;;5040315;28;20477;-79
2022/12/12 06:18:54;;;;;;;13.02;8.32;;;-1.70;99.90;;;;;;5038111;28;20052;-81
2022/12/12 06:21:20;;;;;;;14.57;8.35;;;-1.70;99.90;;;;;;5036960;28;20056;-80
2022/12/12 06:23:46;;;;;;;16.10;8.85;;;-1.70;99.90;;;;;;5041922;28;20068;-80
2022/12/12 06:26:13;;;;;;;14.90;7.25;;;-1.70;99.90;;;;;;5045551;28;20091;-81
2022/12/12 06:28:39;;;;;;;14.95;7.57;;;-1.60;99.90;;;;;;5040098;28;20029;-80
2022/12/12 06:31:06;;;;;;;9.80;6.72;;;-1.60;99.90;;;;;;5040085;28;20095;-80
2022/12/12 06:33:34;;;;;;;17.10;7.53;;;-1.60;99.90;;;;;;5037969;28;20452;-80
2022/12/12 06:36:06;;;;;;;14.07;8.05;;;-1.50;99.90;;;;;;5042799;28;20031;-80
2022/12/12 06:38:32;;;;;;;16.27;7.80;;;-1.50;99.90;;;;;;5034907;28;20055;-79
2022/12/12 06:40:58;;;;;;;14.25;7.57;;;-1.50;99.90;;;;;;5041047;28;20079;-81
2022/12/12 06:43:23;;;;;;;15.93;6.95;;;-1.50;99.90;;;;;;5043277;28;20045;-81
2022/12/12 06:45:49;;;;;;;16.17;10.10;;;-1.40;99.90;;;;;;5041926;28;20028;-80
2022/12/12 06:48:15;;;;;;;13.27;8.38;;;-1.50;99.90;;;;;;5036305;28;20104;-81
2022/12/12 06:50:43;;;;;;;16.98;9.55;;;-1.50;99.90;;;;;;5039043;28;20555;-81
2022/12/12 06:53:09;;;;;;;16.55;9.80;;;-1.40;99.90;;;;;;5038731;28;20044;-81
2022/12/12 06:55:42;;;;;;;12.65;7.85;;;-1.40;99.90;;;;;;5037885;28;20024;-80
2022/12/12 06:58:09;;;;;;;31.77;13.85;;;-1.40;99.90;;;;;;5036649;28;20020;-81
2022/12/12 07:00:34;;;;;;;42.95;18.00;;;-1.40;99.90;;;;;;5033921;28;20145;-81
2022/12/12 07:03:00;;;;;;;13.18;7.25;;;-1.40;99.90;;;;;;5038840;28;20029;-81
2022/12/12 07:05:25;;;;;;;141.52;49.83;;;-1.40;99.90;;;;;;5039750;28;20053;-80
2022/12/12 07:07:51;;;;;;;133.07;47.13;;;-1.40;99.90;;;;;;5040751;28;20036;-81
2022/12/12 07:10:17;;;;;;;34.58;14.75;;;-1.40;99.90;;;;;;5040031;28;20021;-82
2022/12/12 07:12:43;;;;;;;88.50;28.95;;;-1.40;99.90;;;;;;5035445;28;20033;-81
2022/12/12 07:15:09;;;;;;;344.88;99.00;;;-1.40;99.90;;;;;;5036737;28;20033;-81
2022/12/12 07:17:34;;;;;;;23.17;10.80;;;-1.40;99.90;;;;;;5033003;28;20055;-81
2022/12/12 07:20:00;;;;;;;126.65;39.25;;;-1.40;99.90;;;;;;5035273;28;20021;-81
2022/12/12 07:22:25;;;;;;;231.75;66.38;;;-1.40;99.90;;;;;;5040249;28;20029;-81
2022/12/12 07:24:54;;;;;;;41.38;15.45;;;-1.40;99.90;;;;;;5038868;28;20405;-81
2022/12/12 07:27:20;;;;;;;34.15;13.85;;;-1.40;99.90;;;;;;5036594;28;20025;-81
2022/12/12 07:29:45;;;;;;;55.33;22.85;;;-1.40;99.90;;;;;;5037084;28;20374;-81
2022/12/12 07:32:11;;;;;;;20.58;10.75;;;-1.40;99.90;;;;;;5044291;28;20028;-80
2022/12/12 07:34:37;;;;;;;19.58;9.77;;;-1.30;99.90;;;;;;5039732;28;20033;-81
2022/12/12 07:37:03;;;;;;;13.18;8.40;;;-1.30;99.90;;;;;;5034712;28;20049;-79
2022/12/12 07:39:31;;;;;;;34.70;14.77;;;-1.20;99.90;;;;;;5042730;28;20033;-81
2022/12/12 07:41:56;;;;;;;17.38;9.27;;;-1.20;99.90;;;;;;5040177;28;20029;-81
2022/12/12 07:44:22;;;;;;;12.32;8.23;;;-1.20;99.90;;;;;;5039784;28;20117;-81
2022/12/12 07:46:47;;;;;;;16.88;8.70;;;-1.30;99.90;;;;;;5036967;28;20021;-81
2022/12/12 07:49:14;;;;;;;13.90;7.97;;;-1.30;99.90;;;;;;5036217;28;20509;-79
2022/12/12 07:51:40;;;;;;;14.43;8.90;;;-1.30;99.90;;;;;;5044984;28;20033;-80
2022/12/12 07:54:05;;;;;;;32.55;15.07;;;-1.30;99.90;;;;;;5034705;28;20043;-81
2022/12/12 07:56:31;;;;;;;19.52;10.27;;;-1.30;99.90;;;;;;5036436;28;20426;-81
2022/12/12 07:58:57;;;;;;;25.92;11.85;;;-1.30;99.90;;;;;;5027574;28;20082;-81
2022/12/12 08:01:25;;;;;;;18.23;9.18;;;-1.20;99.90;;;;;;5039331;28;20075;-80
2022/12/12 08:03:52;;;;;;;13.23;8.10;;;-1.20;99.90;;;;;;5041249;28;20043;-81
2022/12/12 08:06:20;;;;;;;109.78;47.83;;;-1.20;99.90;;;;;;5040786;28;20028;-79
2022/12/12 08:08:47;;;;;;;21.83;11.63;;;-1.20;99.90;;;;;;5037493;28;20120;-80
2022/12/12 08:11:14;;;;;;;24.88;11.52;;;-1.20;99.90;;;;;;5032012;28;20119;-81
2022/12/12 08:13:41;;;;;;;18.52;10.82;;;-1.20;99.90;;;;;;5037043;28;20080;-83
2022/12/12 08:16:13;;;;;;;16.63;9.38;;;-1.20;99.90;;;;;;5034544;28;20368;-81
2022/12/12 08:18:38;;;;;;;22.40;10.32;;;-1.30;99.90;;;;;;5035221;28;20043;-81
2022/12/12 08:21:09;;;;;;;25.58;12.75;;;-1.30;99.90;;;;;;5036604;28;20029;-81
2022/12/12 08:23:35;;;;;;;19.00;9.80;;;-1.20;99.90;;;;;;5038168;28;20040;-82
2022/12/12 08:26:07;;;;;;;22.70;10.25;;;-1.30;99.90;;;;;;5042189;28;20021;-81
2022/12/12 08:28:33;;;;;;;15.75;10.02;;;-1.20;99.90;;;;;;5033229;28;20048;-81
2022/12/12 08:31:02;;;;;;;15.75;9.45;;;-1.30;99.90;;;;;;5040118;28;20056;-80
2022/12/12 08:33:28;;;;;;;17.88;9.85;;;-1.20;99.90;;;;;;5035381;28;20096;-81
2022/12/12 08:35:54;;;;;;;18.58;9.27;;;-1.20;99.90;;;;;;5036177;28;20068;-81
2022/12/12 08:38:20;;;;;;;16.02;8.43;;;-1.20;99.90;;;;;;5042805;28;20079;-81
2022/12/12 08:40:46;;;;;;;16.83;9.50;;;-1.20;99.90;;;;;;5046934;28;20367;-80
2022/12/12 08:43:12;;;;;;;21.55;8.63;;;-1.10;99.90;;;;;;5039405;28;20055;-80
2022/12/12 08:45:38;;;;;;;18.15;8.52;;;-1.10;99.90;;;;;;5038554;28;20435;-81
2022/12/12 08:48:05;;;;;;;16.40;9.48;;;-1.10;99.90;;;;;;5036576;28;20028;-81
2022/12/12 08:50:31;;;;;;;15.18;9.02;;;-1.10;99.90;;;;;;5044115;28;20412;-79
2022/12/12 08:52:57;;;;;;;15.23;9.35;;;-1.10;99.90;;;;;;5038270;28;20025;-81
2022/12/12 08:55:22;;;;;;;20.77;8.95;;;-1.10;99.90;;;;;;5030654;28;20083;-81
2022/12/12 08:57:48;;;;;;;15.35;9.27;;;-1.10;99.90;;;;;;5034375;28;20035;-81
2022/12/12 09:00:14;;;;;;;14.52;8.20;;;-1.10;99.90;;;;;;5036270;28;20101;-81
2022/12/12 09:02:40;;;;;;;21.48;9.73;;;-1.10;99.90;;;;;;5038821;28;20103;-80
2022/12/12 09:05:06;;;;;;;19.75;9.23;;;-1.10;99.90;;;;;;5033315;28;20045;-81
2022/12/12 09:07:34;;;;;;;20.05;9.48;;;-1.10;99.90;;;;;;5037583;28;20047;-81
2022/12/12 09:09:59;;;;;;;15.25;9.27;;;-1.00;99.90;;;;;;5036724;28;20247;-81
2022/12/12 09:12:25;;;;;;;16.83;8.70;;;-1.00;99.90;;;;;;5040286;28;20148;-80
2022/12/12 09:14:50;;;;;;;17.58;8.98;;;-1.10;99.90;;;;;;5033616;28;20131;-81
2022/12/12 09:17:16;;;;;;;18.45;9.30;;;-1.00;99.90;;;;;;5037119;28;20025;-81
2022/12/12 09:19:42;;;;;;;19.50;10.40;;;-1.00;99.90;;;;;;5037129;28;20029;-81
2022/12/12 09:22:09;;;;;;;18.67;10.48;;;-1.00;99.90;;;;;;5042192;28;20071;-81
2022/12/12 09:24:34;;;;;;;17.45;9.60;;;-1.00;99.90;;;;;;5039494;28;20041;-81
2022/12/12 09:27:00;;;;;;;21.63;10.43;;;-1.00;99.90;;;;;;5038707;28;20036;-81
2022/12/12 09:29:26;;;;;;;17.08;10.38;;;-1.00;99.90;;;;;;5040105;28;20044;-81
2022/12/12 09:31:52;;;;;;;18.65;9.32;;;-1.00;99.90;;;;;;5033987;28;20389;-81
2022/12/12 09:34:17;;;;;;;19.45;10.43;;;-1.00;99.90;;;;;;5050645;28;20049;-81
2022/12/12 09:36:46;;;;;;;19.85;9.35;;;-0.90;99.90;;;;;;5051075;28;20534;-79
2022/12/12 09:39:12;;;;;;;19.48;9.48;;;-0.90;99.90;;;;;;5045940;28;20029;-81
2022/12/12 09:41:37;;;;;;;17.02;10.02;;;-0.90;99.90;;;;;;5045918;28;20040;-81
2022/12/12 09:44:14;;;;;;;14.73;8.65;;;-0.90;99.90;;;;;;5038737;28;20037;-81
2022/12/12 09:46:46;;;;;;;17.17;9.73;;;-0.90;99.90;;;;;;5039946;28;20063;-81
2022/12/12 09:49:24;;;;;;;14.75;9.32;;;-0.90;99.90;;;;;;5049360;28;20056;-81
2022/12/12 09:51:51;;;;;;;19.77;9.55;;;-0.90;99.90;;;;;;5041426;28;20041;-81
2022/12/12 09:54:22;;;;;;;18.95;9.52;;;-0.90;99.90;;;;;;5044613;28;20029;-81
2022/12/12 09:57:08;;;;;;;16.35;9.10;;;-0.90;99.90;;;;;;5041800;28;20039;-81
2022/12/12 10:00:04;;;;;;;16.83;10.60;;;-0.90;99.90;;;;;;5040681;28;20072;-81
2022/12/12 10:02:50;;;;;;;18.33;8.82;;;-0.80;99.90;;;;;;5037960;28;20256;-81
2022/12/12 10:05:22;;;;;;;15.90;8.80;;;-0.80;99.90;;;;;;5043861;28;20478;-81
2022/12/12 10:08:14;;;;;;;15.65;8.20;;;-0.80;99.90;;;;;;5042298;28;20046;-80
2022/12/12 10:10:47;;;;;;;19.20;8.57;;;-0.80;99.90;;;;;;5042175;28;20037;-81
2022/12/12 10:13:17;;;;;;;12.95;8.02;;;-0.80;99.90;;;;;;5041014;28;20028;-81
2022/12/12 10:15:47;;;;;;;15.65;9.27;;;-0.80;99.90;;;;;;5040526;28;20108;-78
2022/12/12 10:18:39;;;;;;;12.70;8.32;;;-0.80;99.90;;;;;;5039702;28;20033;-81
2022/12/12 10:21:12;;;;;;;15.27;8.70;;;-0.80;99.90;;;;;;5038508;28;20040;-81
2022/12/12 10:23:46;;;;;;;14.27;8.52;;;-0.80;99.90;;;;;;5046149;28;20128;-80
2022/12/12 10:26:19;;;;;;;15.23;9.48;;;-0.80;99.90;;;;;;5041650;28;20033;-81
2022/12/12 10:28:51;;;;;;;19.48;10.18;;;-0.80;99.90;;;;;;5037807;28;20029;-82
2022/12/12 10:31:33;;;;;;;15.05;8.85;;;-0.80;99.90;;;;;;5039585;28;20031;-80
2022/12/12 10:34:34;;;;;;;14.55;9.32;;;-0.70;99.90;;;;;;5035217;28;20116;-81
2022/12/12 10:37:27;;;;;;;18.48;9.45;;;-0.80;99.90;;;;;;5030141;28;20041;-81
2022/12/12 10:40:20;;;;;;;26.48;12.15;;;-0.80;99.90;;;;;;5033763;28;20274;-80
2022/12/12 10:42:56;;;;;;;19.40;10.00;;;-0.80;99.90;;;;;;5042147;28;20021;-80
2022/12/12 10:45:39;;;;;;;18.00;9.88;;;-0.80;99.90;;;;;;5035845;28;20049;-78
2022/12/12 10:48:05;;;;;;;20.63;10.05;;;-0.80;99.90;;;;;;5039262;28;20033;-81
2022/12/12 10:50:34;;;;;;;16.13;8.63;;;-0.80;99.90;;;;;;5047942;28;20496;-81
2022/12/12 10:53:06;;;;;;;13.63;9.32;;;-0.70;99.90;;;;;;5032879;28;20037;-81
2022/12/12 10:55:40;;;;;;;17.63;9.40;;;-0.80;99.90;;;;;;5040527;28;20041;-81
2022/12/12 10:58:06;;;;;;;15.80;9.75;;;-0.80;99.90;;;;;;5036934;28;20055;-80
2022/12/12 11:00:36;;;;;;;18.85;9.65;;;-0.70;99.90;;;;;;5040825;28;20072;-81
2022/12/12 11:03:38;;;;;;;16.85;9.77;;;-0.80;99.90;;;;;;5043635;28;20035;-81
2022/12/12 11:06:08;;;;;;;17.90;10.40;;;-0.70;99.90;;;;;;5041707;28;20060;-81
2022/12/12 11:08:37;;;;;;;18.70;9.98;;;-0.60;99.90;;;;;;5044168;28;20025;-79
2022/12/12 11:11:09;;;;;;;24.40;12.63;;;-0.70;99.90;;;;;;5034410;28;20029;-81
2022/12/12 11:13:59;;;;;;;17.45;10.27;;;-0.70;99.90;;;;;;5036646;28;20175;-82
2022/12/12 11:16:29;;;;;;;18.90;11.38;;;-0.60;99.90;;;;;;5031872;28;20497;-80
2022/12/12 11:19:03;;;;;;;24.35;12.95;;;-0.60;99.90;;;;;;5035878;28;20500;-81
2022/12/12 11:21:32;;;;;;;26.30;13.33;;;-0.70;99.90;;;;;;5037195;28;20036;-80
2022/12/12 11:23:59;;;;;;;23.60;13.40;;;-0.60;99.90;;;;;;5033525;28;20142;-80
2022/12/12 11:26:28;;;;;;;23.45;12.95;;;-0.60;99.90;;;;;;5044381;28;20139;-80
2022/12/12 11:28:58;;;;;;;16.05;9.60;;;-0.60;99.90;;;;;;5046047;28;20414;-82
2022/12/12 11:31:28;;;;;;;23.95;10.23;;;-0.60;99.90;;;;;;5041437;28;20163;-80
2022/12/12 11:33:56;;;;;;;16.52;10.48;;;-0.60;99.90;;;;;;5040735;28;20053;-80
2022/12/12 11:36:38;;;;;;;19.88;11.43;;;-0.60;99.90;;;;;;5035342;28;20108;-81
2022/12/12 11:39:20;;;;;;;18.23;9.63;;;-0.70;99.90;;;;;;5040394;28;20021;-81
2022/12/12 11:42:02;;;;;;;17.38;9.90;;;-0.60;99.90;;;;;;5045078;28;20450;-80
2022/12/12 11:44:37;;;;;;;18.73;10.75;;;-0.60;99.90;;;;;;5032830;28;20037;-81
2022/12/12 11:47:17;;;;;;;18.60;8.90;;;-0.60;99.90;;;;;;5044973;28;20124;-81
2022/12/12 11:49:49;;;;;;;18.00;9.52;;;-0.60;99.90;;;;;;5044711;28;20029;-82
2022/12/12 11:52:27;;;;;;;14.45;9.02;;;-0.60;99.90;;;;;;5044609;28;20036;-81
2022/12/12 11:54:54;;;;;;;14.88;9.45;;;-0.60;99.90;;;;;;5037982;28;20115;-80
2022/12/12 11:57:37;;;;;;;16.10;9.70;;;-0.60;99.90;;;;;;5035332;28;20022;-80
2022/12/12 12:00:12;;;;;;;25.30;9.35;;;-0.60;99.90;;;;;;5034869;28;20055;-80
2022/12/12 12:03:46;;;;;;;18.55;10.85;;;-0.60;99.90;;;;;;5043468;28;20035;-79
2022/12/12 12:06:48;;;;;;;17.08;9.48;;;-0.60;99.90;;;;;;4962112;28;20035;-80
2022/12/12 12:09:58;;;;;;;17.35;9.68;;;-0.60;99.90;;;;;;5031189;28;20099;-81
2022/12/12 12:12:37;;;;;;;20.80;9.20;;;-0.60;99.90;;;;;;5031250;28;20084;-81
2022/12/12 12:15:32;;;;;;;17.13;9.95;;;-0.70;99.90;;;;;;5034548;28;20029;-80
2022/12/12 12:18:17;;;;;;;16.48;9.48;;;-0.70;99.90;;;;;;5046921;28;20031;-80
2022/12/12 12:21:12;;;;;;;19.80;10.52;;;-0.70;99.90;;;;;;5040290;28;20039;-81
2022/12/12 12:24:01;;;;;;;18.52;10.07;;;-0.70;99.90;;;;;;5032696;28;20048;-80
2022/12/12 12:27:01;;;;;;;18.50;10.10;;;-0.70;99.90;;;;;;5038014;28;20044;-81
2022/12/12 12:29:45;;;;;;;16.98;9.95;;;-0.60;99.90;;;;;;5035294;28;20044;-81
2022/12/12 12:32:37;;;;;;;17.08;9.88;;;-0.50;99.90;;;;;;5036473;28;20034;-81
2022/12/12 12:35:20;;;;;;;16.65;8.43;;;-0.50;99.90;;;;;;5039188;28;20028;-81
2022/12/12 12:38:23;;;;;;;18.33;9.75;;;-0.50;99.90;;;;;;5036085;28;20025;-80
2022/12/12 12:41:05;;;;;;;23.55;10.63;;;-0.50;99.90;;;;;;5046664;28;20028;-80
2022/12/12 12:43:56;;;;;;;16.50;9.82;;;-0.60;99.90;;;;;;5036869;28;20088;-81
2022/12/12 12:46:39;;;;;;;17.77;9.65;;;-0.60;99.90;;;;;;5039009;28;20032;-80
2022/12/12 12:49:23;;;;;;;17.58;9.77;;;-0.60;99.90;;;;;;5031398;28;20025;-81
2022/12/12 12:52:24;;;;;;;14.73;9.25;;;-0.60;99.90;;;;;;5034416;28;20036;-81
2022/12/12 12:54:55;;;;;;;20.98;10.30;;;-0.60;99.90;;;;;;5037600;28;20041;-81
2022/12/12 12:57:27;;;;;;;19.08;9.93;;;-0.50;99.90;;;;;;5036847;28;20055;-80
2022/12/12 12:59:58;;;;;;;20.35;11.45;;;-0.50;99.90;;;;;;5039808;28;20061;-80
2022/12/12 13:02:36;;;;;;;16.33;9.73;;;-0.40;99.90;;;;;;5043165;28;20029;-80
2022/12/12 13:05:06;;;;;;;22.92;10.52;;;-0.40;99.90;;;;;;5035838;28;20068;-82
2022/12/12 13:07:45;;;;;;;22.10;11.52;;;-0.40;99.90;;;;;;5036447;28;20033;-80
2022/12/12 13:10:21;;;;;;;19.13;10.63;;;-0.50;99.90;;;;;;5041612;28;20029;-81
2022/12/12 13:12:54;;;;;;;19.48;9.82;;;-0.50;99.90;;;;;;5038237;28;20021;-81